Time;durP1;ratioP1;P1;durP2;ratioP2;P2;SDS_P1;SDS_P2;PMS_P1;PMS_P2;Temp;Humidity;BMP_temperature;BMP_pressure;BME280_temperature;BME280_humidity;BME280_pressure;Samples;Min_cycle;Max_cycle;Signal;HPM_P1;HPM_P2
2023/04/03 00:02:05;;;;;;;;;;;;;;;22.23;28.28;97216.16;4880233;29;912;-74
2023/04/03 00:04:31;;;;;;;;;;;;;;;22.14;28.48;97219.72;4893808;29;1160;-74
2023/04/03 00:06:57;;;;;;;;;;;;;;;22.49;27.82;97216.66;4867740;29;1274;-74
2023/04/03 00:09:22;;;;;;;;;;;;;;;22.16;28.12;97222.88;4898598;29;1147;-74
2023/04/03 00:11:48;;;;;;;;;;;;;;;21.25;29.38;97207.00;4926596;29;997;-74
2023/04/03 00:14:14;;;;;;;;;;;;;;;21.69;28.75;97203.31;4936361;29;1985;-74
2023/04/03 00:16:39;;;;;;;;;;;;;;;22.64;27.47;97211.97;4936767;29;1062;-74
2023/04/03 00:19:05;;;;;;;;;;;;;;;22.41;27.91;97204.84;4920447;29;1116;-74
2023/04/03 00:21:31;;;;;;;;;;;;;;;22.48;27.49;97209.41;4920609;29;988;-74
2023/04/03 00:23:57;;;;;;;;;;;;;;;22.26;27.86;97203.84;4922243;29;979;-73
2023/04/03 00:26:22;;;;;;;;;;;;;;;21.83;28.16;97199.91;4957903;29;963;-74
2023/04/03 00:28:48;;;;;;;;;;;;;;;21.81;28.15;97203.22;4956756;29;937;-73
2023/04/03 00:31:17;;;;;;;;;;;;;;;21.96;27.94;97199.81;4940800;29;1292;-74
2023/04/03 00:33:42;;;;;;;;;;;;;;;22.57;27.76;97190.34;4940672;29;1969;-74
2023/04/03 00:36:09;;;;;;;;;;;;;;;22.61;27.64;97190.22;4956659;29;991;-74
2023/04/03 00:38:35;;;;;;;;;;;;;;;22.19;28.08;97190.78;4940815;29;1228;-74
2023/04/03 00:41:00;;;;;;;;;;;;;;;22.12;28.21;97195.94;4940363;29;1456;-74
2023/04/03 00:43:27;;;;;;;;;;;;;;;21.84;28.38;97202.28;4940665;29;1078;-74
2023/04/03 00:45:53;;;;;;;;;;;;;;;21.84;28.23;97201.50;4957504;29;1103;-74
2023/04/03 00:48:26;;;;;;;;;;;;;;;21.79;28.40;97200.06;4956520;28;1168;-74
2023/04/03 00:50:51;;;;;;;;;;;;;;;22.41;27.89;97204.06;4901180;29;1246;-75
2023/04/03 00:53:25;;;;;;;;;;;;;;;22.61;27.51;97193.06;4901185;29;1993;-74
2023/04/03 00:55:51;;;;;;;;;;;;;;;22.48;27.73;97198.84;4901084;29;956;-74
2023/04/03 00:58:18;;;;;;;;;;;;;;;22.22;27.73;97192.66;4867145;29;1063;-73
2023/04/03 01:00:45;;;;;;;;;;;;;;;21.98;27.96;97194.47;4882535;29;1342;-74
2023/04/03 01:03:10;;;;;;;;;;;;;;;21.76;28.37;97195.34;4897972;29;962;-74
2023/04/03 01:05:38;;;;;;;;;;;;;;;21.68;28.74;97196.09;4917075;29;1157;-74
2023/04/03 01:08:03;;;;;;;;;;;;;;;22.36;28.10;97192.06;4916643;29;952;-74
2023/04/03 01:10:30;;;;;;;;;;;;;;;22.28;27.86;97187.19;4935759;29;1173;-74
2023/04/03 01:12:56;;;;;;;;;;;;;;;22.43;28.02;97184.50;4920142;29;1061;-74
2023/04/03 01:15:23;;;;;;;;;;;;;;;22.42;27.62;97177.28;4920031;29;1907;-75
2023/04/03 01:17:50;;;;;;;;;;;;;;;22.02;27.78;97173.25;4919826;29;978;-74
2023/04/03 01:20:16;;;;;;;;;;;;;;;21.91;27.92;97172.09;4904260;29;1310;-74
2023/04/03 01:22:54;;;;;;;;;;;;;;;21.80;28.22;97170.47;4984620;28;888;-74
2023/04/03 01:25:19;;;;;;;;;;;;;;;22.40;28.02;97168.47;4935414;29;903;-73
2023/04/03 01:27:45;;;;;;;;;;;;;;;22.46;27.73;97173.03;4904222;29;1181;-74
2023/04/03 01:30:11;;;;;;;;;;;;;;;22.32;27.87;97174.41;4936539;29;1120;-74
2023/04/03 01:32:37;;;;;;;;;;;;;;;22.20;28.01;97168.91;4939076;29;1145;-74
2023/04/03 01:35:03;;;;;;;;;;;;;;;21.95;28.22;97167.84;4922737;29;1974;-74
2023/04/03 01:37:28;;;;;;;;;;;;;;;21.96;27.76;97162.97;4955260;29;1024;-74
2023/04/03 01:39:54;;;;;;;;;;;;;;;21.66;28.45;97168.25;4938768;29;1332;-74
2023/04/03 01:42:19;;;;;;;;;;;;;;;21.88;28.89;97167.38;4922749;29;1049;-73
2023/04/03 01:44:46;;;;;;;;;;;;;;;22.41;28.16;97170.03;4935256;29;1404;-75
2023/04/03 01:47:12;;;;;;;;;;;;;;;22.50;27.95;97178.56;4920039;29;996;-73
2023/04/03 01:49:39;;;;;;;;;;;;;;;22.51;27.98;97174.47;4919913;29;1230;-74
2023/04/03 01:52:05;;;;;;;;;;;;;;;22.02;28.23;97186.59;4919596;29;1366;-74
2023/04/03 01:54:31;;;;;;;;;;;;;;;22.06;28.10;97179.53;4919811;29;1922;-73
2023/04/03 01:56:56;;;;;;;;;;;;;;;21.79;28.74;97194.41;4961521;28;1192;-74
2023/04/03 01:59:22;;;;;;;;;;;;;;;21.66;28.76;97188.06;4975206;28;1239;-74
2023/04/03 02:01:48;;;;;;;;;;;;;;;21.67;28.90;97195.28;4945917;28;1368;-74
2023/04/03 02:04:14;;;;;;;;;;;;;;;21.80;28.79;97190.31;4962323;28;1258;-74
2023/04/03 02:06:40;;;;;;;;;;;;;;;22.24;28.54;97190.16;4946445;28;1258;-74
2023/04/03 02:09:06;;;;;;;;;;;;;;;22.31;28.35;97192.69;4977412;28;1080;-74
2023/04/03 02:11:32;;;;;;;;;;;;;;;22.35;28.14;97195.38;4960994;28;983;-74
2023/04/03 02:13:57;;;;;;;;;;;;;;;22.19;27.97;97204.94;4961152;28;1955;-74
2023/04/03 02:16:23;;;;;;;;;;;;;;;22.08;28.36;97188.38;4961137;28;1049;-74
2023/04/03 02:18:49;;;;;;;;;;;;;;;21.99;28.36;97193.22;4960998;28;1280;-74
2023/04/03 02:21:15;;;;;;;;;;;;;;;21.77;28.66;97202.56;4944999;28;1460;-74
2023/04/03 02:23:41;;;;;;;;;;;;;;;22.08;28.63;97198.91;4977343;28;1133;-74
2023/04/03 02:26:07;;;;;;;;;;;;;;;22.16;28.60;97211.53;4976794;28;1058;-74
2023/04/03 02:28:33;;;;;;;;;;;;;;;22.40;28.18;97208.94;4957266;29;1046;-74
2023/04/03 02:30:58;;;;;;;;;;;;;;;22.11;28.33;97203.66;4957657;29;983;-74
2023/04/03 02:33:24;;;;;;;;;;;;;;;21.69;28.97;97198.44;4957309;29;1915;-75
2023/04/03 02:35:53;;;;;;;;;;;;;;;21.87;28.47;97205.44;4941365;29;1282;-74
2023/04/03 02:38:20;;;;;;;;;;;;;;;21.72;28.50;97206.00;4941502;29;1195;-75
2023/04/03 02:40:47;;;;;;;;;;;;;;;21.70;28.58;97208.50;4941370;29;1224;-74
2023/04/03 02:43:13;;;;;;;;;;;;;;;21.97;28.73;97212.72;4957285;29;1109;-73
2023/04/03 02:45:39;;;;;;;;;;;;;;;22.31;28.38;97212.53;4941132;29;1132;-74
2023/04/03 02:48:05;;;;;;;;;;;;;;;22.36;28.35;97209.06;4925374;29;1089;-73
2023/04/03 02:50:31;;;;;;;;;;;;;;;21.97;28.86;97216.34;4957323;29;1065;-73
2023/04/03 02:52:57;;;;;;;;;;;;;;;21.79;28.78;97216.25;4937790;29;1286;-74
2023/04/03 02:55:22;;;;;;;;;;;;;;;21.81;28.77;97220.22;4921990;29;1903;-74
2023/04/03 02:57:50;;;;;;;;;;;;;;;21.83;28.89;97220.53;4922345;29;1248;-74
2023/04/03 03:00:17;;;;;;;;;;;;;;;22.20;28.55;97219.91;4907023;29;1238;-73
2023/04/03 03:02:43;;;;;;;;;;;;;;;22.43;27.88;97229.88;4899615;29;1197;-74
2023/04/03 03:05:08;;;;;;;;;;;;;;;22.03;28.39;97219.34;4899873;29;1191;-74
2023/04/03 03:07:34;;;;;;;;;;;;;;;21.85;28.56;97229.34;4915321;29;1007;-74
2023/04/03 03:10:00;;;;;;;;;;;;;;;21.90;28.63;97227.16;4919064;29;1013;-73
2023/04/03 03:12:26;;;;;;;;;;;;;;;21.79;28.64;97221.94;4917581;29;962;-74
2023/04/03 03:14:51;;;;;;;;;;;;;;;21.82;28.91;97221.78;4902813;29;1985;-74
2023/04/03 03:17:17;;;;;;;;;;;;;;;22.49;27.75;97231.63;4902856;29;1026;-74
2023/04/03 03:19:43;;;;;;;;;;;;;;;22.31;28.05;97232.38;4930869;29;1471;-74
2023/04/03 03:22:08;;;;;;;;;;;;;;;22.02;28.45;97235.56;4918389;29;1162;-74
2023/04/03 03:24:34;;;;;;;;;;;;;;;22.01;28.57;97241.69;4918352;29;1113;-73
2023/04/03 03:26:59;;;;;;;;;;;;;;;21.98;28.43;97239.78;4918513;29;1003;-74
2023/04/03 03:29:25;;;;;;;;;;;;;;;21.78;28.92;97238.13;4902788;29;1165;-73
2023/04/03 03:31:51;;;;;;;;;;;;;;;21.74;28.73;97248.81;4887010;29;1629;-74
2023/04/03 03:34:17;;;;;;;;;;;;;;;21.67;28.88;97246.25;4944593;28;1914;-74
2023/04/03 03:36:43;;;;;;;;;;;;;;;22.05;28.78;97253.66;4943925;28;917;-74
2023/04/03 03:39:09;;;;;;;;;;;;;;;22.44;28.12;97254.16;4957779;28;1721;-74
2023/04/03 03:41:35;;;;;;;;;;;;;;;22.48;28.07;97260.44;4949768;28;1593;-75
2023/04/03 03:44:01;;;;;;;;;;;;;;;22.27;27.87;97254.38;4943661;28;1207;-74
2023/04/03 03:46:29;;;;;;;;;;;;;;;22.10;28.01;97270.88;4943486;28;1403;-74
2023/04/03 03:48:54;;;;;;;;;;;;;;;21.66;28.59;97258.03;4943574;28;1125;-74
2023/04/03 03:51:20;;;;;;;;;;;;;;;21.79;28.91;97273.69;4943388;28;1009;-74
2023/04/03 03:53:46;;;;;;;;;;;;;;;21.98;28.77;97265.28;4991119;28;1979;-74
2023/04/03 03:56:14;;;;;;;;;;;;;;;22.16;28.26;97268.22;4976371;28;1399;-73
2023/04/03 03:58:41;;;;;;;;;;;;;;;22.26;27.76;97264.16;4976635;28;1541;-74
2023/04/03 04:01:07;;;;;;;;;;;;;;;21.91;28.56;97279.72;4976305;28;1238;-74
2023/04/03 04:03:38;;;;;;;;;;;;;;;21.92;28.26;97275.66;4982923;28;1331;-73
2023/04/03 04:06:04;;;;;;;;;;;;;;;22.22;28.40;97274.84;4989717;28;1450;-74
2023/04/03 04:08:30;;;;;;;;;;;;;;;22.22;28.27;97277.66;4979698;28;1062;-74
2023/04/03 04:10:56;;;;;;;;;;;;;;;22.03;28.55;97288.13;4979380;28;1315;-74
2023/04/03 04:13:22;;;;;;;;;;;;;;;22.15;28.04;97277.97;4979532;28;987;-74
2023/04/03 04:15:48;;;;;;;;;;;;;;;21.97;28.20;97283.53;4995559;28;2034;-73
2023/04/03 04:18:15;;;;;;;;;;;;;;;21.78;28.39;97282.66;4979280;28;1153;-74
2023/04/03 04:20:44;;;;;;;;;;;;;;;21.83;28.52;97280.00;4955308;28;1536;-74
2023/04/03 04:23:10;;;;;;;;;;;;;;;21.90;28.53;97284.59;4939229;29;1501;-74
2023/04/03 04:25:37;;;;;;;;;;;;;;;22.29;28.20;97282.28;4955599;29;1234;-74
2023/04/03 04:28:04;;;;;;;;;;;;;;;22.45;27.90;97284.06;4939782;29;933;-74
2023/04/03 04:30:30;;;;;;;;;;;;;;;22.67;27.71;97286.78;4939619;29;1161;-74
2023/04/03 04:32:57;;;;;;;;;;;;;;;21.97;28.51;97283.53;4939618;29;1272;-73
2023/04/03 04:35:23;;;;;;;;;;;;;;;21.72;28.60;97293.00;4919653;29;1907;-74
2023/04/03 04:37:51;;;;;;;;;;;;;;;21.68;28.89;97295.97;4936591;29;1087;-74
2023/04/03 04:40:17;;;;;;;;;;;;;;;21.94;28.58;97295.78;4904468;29;1191;-74
2023/04/03 04:42:42;;;;;;;;;;;;;;;21.77;28.71;97298.84;4936227;29;1109;-74
2023/04/03 04:45:09;;;;;;;;;;;;;;;22.10;28.40;97299.19;4935931;29;1212;-74
2023/04/03 04:47:36;;;;;;;;;;;;;;;22.42;28.07;97296.31;4920458;29;1296;-73
2023/04/03 04:50:03;;;;;;;;;;;;;;;23.01;26.96;97291.44;4915381;29;1440;-74
2023/04/03 04:52:30;;;;;;;;;;;;;;;22.61;27.50;97297.97;4919843;29;1508;-74
2023/04/03 04:54:56;;;;;;;;;;;;;;;22.05;28.53;97299.78;4936105;29;1910;-73
2023/04/03 04:57:22;;;;;;;;;;;;;;;21.79;28.59;97290.69;4923606;29;1220;-74
2023/04/03 04:59:48;;;;;;;;;;;;;;;21.71;29.13;97288.56;4942818;28;1103;-74
2023/04/03 05:02:15;;;;;;;;;;;;;;;21.63;29.07;97284.44;4958198;28;1180;-73
2023/04/03 05:04:42;;;;;;;;;;;;;;;21.94;28.73;97295.78;4927089;28;1241;-74
2023/04/03 05:07:15;;;;;;;;;;;;;;;22.35;28.40;97292.53;4965325;28;1451;-73
2023/04/03 05:09:42;;;;;;;;;;;;;;;22.60;27.80;97294.34;4992062;28;1528;-74
2023/04/03 05:12:08;;;;;;;;;;;;;;;22.56;28.21;97293.69;4997554;28;1431;-74
2023/04/03 05:14:40;;;;;;;;;;;;;;;22.13;28.39;97291.81;4982698;28;1966;-74
2023/04/03 05:17:07;;;;;;;;;;;;;;;21.88;28.61;97292.00;4998256;28;1103;-74
2023/04/03 05:19:37;;;;;;;;;;;;;;;21.68;28.85;97295.97;4982531;28;1245;-74
2023/04/03 05:22:04;;;;;;;;;;;;;;;22.02;28.48;97292.22;4998013;28;1222;-74
2023/04/03 05:24:30;;;;;;;;;;;;;;;22.55;27.93;97283.63;4964755;28;1078;-74
2023/04/03 05:26:55;;;;;;;;;;;;;;;22.23;28.13;97284.94;4997218;28;1469;-74
2023/04/03 05:29:21;;;;;;;;;;;;;;;22.18;28.73;97288.38;4981881;28;1228;-74
2023/04/03 05:31:48;;;;;;;;;;;;;;;22.57;27.59;97283.13;4982049;28;1153;-73
2023/04/03 05:34:14;;;;;;;;;;;;;;;22.19;28.11;97287.13;4998160;28;1910;-74
2023/04/03 05:36:42;;;;;;;;;;;;;;;21.72;28.73;97288.13;4984730;28;1288;-73
2023/04/03 05:39:08;;;;;;;;;;;;;;;21.59;29.09;97293.06;4977708;28;1131;-74
2023/04/03 05:41:37;;;;;;;;;;;;;;;21.74;28.76;97304.66;4945961;28;1650;-74
2023/04/03 05:44:03;;;;;;;;;;;;;;;22.14;28.64;97315.28;4910082;29;1393;-74
2023/04/03 05:46:29;;;;;;;;;;;;;;;22.52;27.83;97312.09;4943008;28;1562;-74
2023/04/03 05:48:57;;;;;;;;;;;;;;;22.12;28.78;97306.44;4965206;28;1589;-74
2023/04/03 05:51:31;;;;;;;;;;;;;;;22.25;28.17;97315.63;4961460;28;1779;-74
2023/04/03 05:54:03;;;;;;;;;;;;;;;22.23;27.95;97318.94;4977464;28;1977;-74
2023/04/03 05:56:29;;;;;;;;;;;;;;;22.12;27.92;97321.38;4977638;28;1328;-74
2023/04/03 05:58:56;;;;;;;;;;;;;;;21.79;28.71;97324.66;4961617;28;1441;-74
2023/04/03 06:01:23;;;;;;;;;;;;;;;22.25;28.14;97326.97;4961289;28;1183;-74
2023/04/03 06:03:49;;;;;;;;;;;;;;;22.36;27.67;97333.78;4966594;28;1734;-73
2023/04/03 06:06:15;;;;;;;;;;;;;;;22.23;27.96;97330.28;4957983;29;1491;-74
2023/04/03 06:08:40;;;;;;;;;;;;;;;22.12;28.01;97329.88;4942194;29;1165;-74
2023/04/03 06:11:06;;;;;;;;;;;;;;;21.99;28.09;97332.81;4952816;29;2255;-74
2023/04/03 06:13:33;;;;;;;;;;;;;;;21.61;28.49;97347.19;4916552;29;1910;-75
2023/04/03 06:15:58;;;;;;;;;;;;;;;22.03;28.62;97346.84;4937120;29;1751;-74
2023/04/03 06:18:24;;;;;;;;;;;;;;;22.44;27.60;97350.53;4941437;29;1613;-74
2023/04/03 06:20:50;;;;;;;;;;;;;;;22.44;28.17;97350.53;4941845;29;1168;-75
2023/04/03 06:23:15;;;;;;;;;;;;;;;22.08;28.66;97346.22;4926085;29;1280;-74
2023/04/03 06:25:41;;;;;;;;;;;;;;;22.30;28.12;97352.66;4922705;29;1260;-74
2023/04/03 06:28:09;;;;;;;;;;;;;;;22.14;28.03;97355.72;4906974;29;1246;-74
2023/04/03 06:30:35;;;;;;;;;;;;;;;21.73;28.68;97354.81;4943607;28;962;-74
2023/04/03 06:33:00;;;;;;;;;;;;;;;22.03;28.85;97361.00;4957348;29;1018;-74
2023/04/03 06:35:27;;;;;;;;;;;;;;;22.64;28.39;97376.44;4957602;29;1985;-74
2023/04/03 06:37:53;;;;;;;;;;;;;;;22.84;27.92;97365.44;4991636;28;1087;-74
2023/04/03 06:40:21;;;;;;;;;;;;;;;22.73;28.11;97367.94;5017958;28;957;-74
2023/04/03 06:42:46;;;;;;;;;;;;;;;22.28;28.61;97377.06;4984402;28;1247;-74
2023/04/03 06:45:12;;;;;;;;;;;;;;;21.91;28.79;97379.63;4980537;28;1682;-73
2023/04/03 06:47:37;;;;;;;;;;;;;;;21.85;28.97;97389.97;4980712;28;934;-74
2023/04/03 06:50:03;;;;;;;;;;;;;;;22.29;29.12;97384.31;4980910;28;1218;-73
2023/04/03 06:52:29;;;;;;;;;;;;;;;22.55;28.46;97393.41;4981123;28;856;-74
2023/04/03 06:54:57;;;;;;;;;;;;;;;22.69;28.39;97397.69;4964542;28;1969;-74
2023/04/03 06:57:24;;;;;;;;;;;;;;;22.28;28.71;97386.34;4964946;28;1259;-73
2023/04/03 06:59:49;;;;;;;;;;;;;;;22.14;28.53;97383.28;4998402;28;1086;-74
2023/04/03 07:02:15;;;;;;;;;;;;;;;21.94;28.72;97386.44;4996889;28;1198;-74
2023/04/03 07:04:41;;;;;;;;;;;;;;;21.92;28.68;97383.28;4977075;28;1795;-74
2023/04/03 07:07:07;;;;;;;;;;;;;;;21.89;28.91;97379.31;5000011;28;944;-74
2023/04/03 07:09:33;;;;;;;;;;;;;;;21.75;29.32;97380.63;5000029;28;1480;-74
2023/04/03 07:11:58;;;;;;;;;;;;;;;22.06;29.50;97392.00;5000036;28;929;-74
2023/04/03 07:14:24;;;;;;;;;;;;;;;22.73;28.26;97401.19;4999812;28;1988;-74
2023/04/03 07:16:50;;;;;;;;;;;;;;;22.50;28.86;97411.03;4983804;28;1198;-74
2023/04/03 07:19:17;;;;;;;;;;;;;;;22.60;28.15;97421.94;4980121;28;1950;-74
2023/04/03 07:21:44;;;;;;;;;;;;;;;22.21;28.91;97423.44;4980598;28;1225;-74
2023/04/03 07:24:10;;;;;;;;;;;;;;;21.91;28.92;97421.34;4980664;28;1010;-74
2023/04/03 07:26:36;;;;;;;;;;;;;;;21.97;29.19;97433.66;4996647;28;981;-75
2023/04/03 07:29:01;;;;;;;;;;;;;;;22.04;29.05;97430.56;4980805;28;956;-74
2023/04/03 07:31:27;;;;;;;;;;;;;;;21.95;29.38;97427.66;4980298;28;911;-74
2023/04/03 07:33:53;;;;;;;;;;;;;;;21.90;29.50;97420.53;4983067;28;1967;-74
2023/04/03 07:36:19;;;;;;;;;;;;;;;21.98;29.35;97429.59;4983422;28;1295;-74
2023/04/03 07:38:45;;;;;;;;;;;;;;;22.53;28.66;97429.91;4999594;28;997;-74
2023/04/03 07:41:15;;;;;;;;;;;;;;;22.28;29.05;97434.53;4983196;28;917;-74
2023/04/03 07:43:41;;;;;;;;;;;;;;;22.31;28.67;97442.09;4966899;28;1210;-73
2023/04/03 07:46:06;;;;;;;;;;;;;;;22.09;29.08;97444.13;4967437;28;1314;-74
2023/04/03 07:48:32;;;;;;;;;;;;;;;21.85;29.01;97447.41;4998499;28;1794;-74
2023/04/03 07:51:01;;;;;;;;;;;;;;;22.00;28.95;97452.56;5016873;28;963;-74
2023/04/03 07:53:27;;;;;;;;;;;;;;;21.34;29.77;97463.78;4999571;28;923;-73
2023/04/03 07:55:56;;;;;;;;;;;;;;;21.95;29.28;97464.47;4999315;28;1935;-74
2023/04/03 07:58:21;;;;;;;;;;;;;;;22.17;28.92;97468.13;4977811;28;1206;-74
2023/04/03 08:00:47;;;;;;;;;;;;;;;22.26;28.64;97476.69;4994586;28;884;-74
2023/04/03 08:03:13;;;;;;;;;;;;;;;22.41;28.08;97481.84;4958196;28;2068;-73
2023/04/03 08:05:39;;;;;;;;;;;;;;;21.95;28.44;97479.44;4958852;28;1202;-74
2023/04/03 08:08:05;;;;;;;;;;;;;;;21.80;28.56;97465.00;4959295;28;948;-74
2023/04/03 08:10:31;;;;;;;;;;;;;;;21.76;28.62;97458.69;4936259;29;978;-74
2023/04/03 08:12:56;;;;;;;;;;;;;;;22.47;27.96;97457.28;4920942;29;962;-74
2023/04/03 08:15:22;;;;;;;;;;;;;;;22.81;27.34;97454.31;4936459;29;1993;-74
2023/04/03 08:17:47;;;;;;;;;;;;;;;22.50;27.98;97456.38;4944794;29;1398;-73
2023/04/03 08:20:13;;;;;;;;;;;;;;;22.14;27.99;97469.06;4923806;29;1097;-73
2023/04/03 08:22:39;;;;;;;;;;;;;;;22.00;28.08;97466.72;4939647;29;983;-74
2023/04/03 08:25:05;;;;;;;;;;;;;;;22.08;27.67;97465.22;4923930;29;1117;-73
2023/04/03 08:27:30;;;;;;;;;;;;;;;21.78;27.98;97470.34;4939474;29;1081;-74
2023/04/03 08:29:56;;;;;;;;;;;;;;;22.07;28.08;97472.13;4908017;29;1341;-75
2023/04/03 08:32:22;;;;;;;;;;;;;;;22.56;27.31;97469.47;4922842;29;1597;-74
2023/04/03 08:34:48;;;;;;;;;;;;;;;22.16;27.89;97460.88;4899332;29;1915;-74
2023/04/03 08:37:15;;;;;;;;;;;;;;;22.00;28.31;97463.91;4898358;29;1017;-74
2023/04/03 08:39:41;;;;;;;;;;;;;;;22.10;28.29;97469.19;4898274;29;1094;-73
2023/04/03 08:42:25;;;;;;;;;;;;;;;22.30;27.66;97453.91;4926779;29;983;-74
2023/04/03 08:44:54;;;;;;;;;;;;;;;22.00;27.64;97455.41;4936151;29;948;-75
2023/04/03 08:47:20;;;;;;;;;;;;;;;21.85;28.13;97452.28;4900797;29;1808;-74
2023/04/03 08:49:51;;;;;;;;;;;;;;;21.59;28.16;97441.06;4897940;29;1065;-74
2023/04/03 08:52:31;;;;;;;;;;;;;;;21.97;28.21;97453.50;4879127;29;1091;-74
2023/04/03 08:54:57;;;;;;;;;;;;;;;22.20;27.42;97452.25;4863899;29;1978;-73
2023/04/03 08:57:26;;;;;;;;;;;;;;;22.07;27.68;97457.94;4863740;29;954;-73
2023/04/03 08:59:52;;;;;;;;;;;;;;;22.23;27.36;97460.63;4863594;29;1850;-74
2023/04/03 09:02:29;;;;;;;;;;;;;;;21.80;28.10;97459.31;4873316;29;1276;-74
2023/04/03 09:04:55;;;;;;;;;;;;;;;21.69;28.00;97444.75;4890122;29;1109;-75
2023/04/03 09:07:26;;;;;;;;;;;;;;;21.80;27.99;97445.16;4937865;29;1591;-74
2023/04/03 09:09:52;;;;;;;;;;;;;;;22.43;27.02;97442.47;4920159;29;940;-74
2023/04/03 09:12:18;;;;;;;;;;;;;;;22.14;27.65;97437.13;4923684;29;1076;-74
2023/04/03 09:14:56;;;;;;;;;;;;;;;21.96;27.50;97434.91;4939872;29;1911;-74
2023/04/03 09:17:45;;;;;;;;;;;;;;;21.97;26.99;97400.47;4939586;29;947;-74
2023/04/03 09:20:21;;;;;;;;;;;;;;;22.15;27.27;97442.31;4878713;29;1678;-74
2023/04/03 09:22:48;;;;;;;;;;;;;;;21.92;27.59;97439.94;4869871;29;1206;-74
2023/04/03 09:25:19;;;;;;;;;;;;;;;22.22;27.29;97441.25;4883052;29;1100;-74
2023/04/03 09:27:45;;;;;;;;;;;;;;;22.25;27.23;97429.78;4896225;29;913;-74
2023/04/03 09:30:17;;;;;;;;;;;;;;;22.11;27.33;97435.97;4886393;29;1642;-73
2023/04/03 09:32:46;;;;;;;;;;;;;;;22.39;26.84;97427.66;4901403;29;1235;-73
2023/04/03 09:35:23;;;;;;;;;;;;;;;21.99;27.56;97428.31;4900667;29;1980;-74
2023/04/03 09:37:50;;;;;;;;;;;;;;;22.02;27.14;97431.03;4900852;29;1843;-75
2023/04/03 09:40:25;;;;;;;;;;;;;;;21.89;27.60;97435.97;4901563;29;1387;-74
2023/04/03 09:42:52;;;;;;;;;;;;;;;21.60;27.84;97424.88;4901304;29;950;-74
2023/04/03 09:45:31;;;;;;;;;;;;;;;22.12;27.44;97429.06;4901370;29;1441;-74
2023/04/03 09:48:06;;;;;;;;;;;;;;;22.23;26.99;97432.31;4901269;29;1118;-74
2023/04/03 09:50:32;;;;;;;;;;;;;;;22.27;27.08;97427.25;4901414;29;1114;-74
2023/04/03 09:52:58;;;;;;;;;;;;;;;22.37;26.75;97436.59;4850034;29;2597;-74
2023/04/03 09:55:29;;;;;;;;;;;;;;;21.98;27.35;97435.25;4829800;29;1911;-74
2023/04/03 09:57:58;;;;;;;;;;;;;;;21.76;27.43;97433.19;4844850;29;1092;-74
2023/04/03 10:00:27;;;;;;;;;;;;;;;21.60;28.04;97430.53;4882631;29;996;-74
2023/04/03 10:02:56;;;;;;;;;;;;;;;22.23;26.95;97434.34;4890904;29;1016;-74
2023/04/03 10:05:35;;;;;;;;;;;;;;;22.08;27.40;97431.22;4938821;29;1373;-74
2023/04/03 10:08:09;;;;;;;;;;;;;;;22.12;27.14;97437.56;4950280;28;1922;-74
2023/04/03 10:10:35;;;;;;;;;;;;;;;22.01;27.44;97442.81;4954141;28;1998;-73
2023/04/03 10:13:27;;;;;;;;;;;;;;;21.95;27.34;97439.78;4938640;29;1183;-74
2023/04/03 10:16:01;;;;;;;;;;;;;;;22.00;27.45;97441.22;4888416;29;2169;-73
2023/04/03 10:18:33;;;;;;;;;;;;;;;22.10;27.58;97446.53;4919750;29;972;-74
2023/04/03 10:21:00;;;;;;;;;;;;;;;22.15;27.39;97441.53;4919117;29;1014;-74
2023/04/03 10:23:33;;;;;;;;;;;;;;;21.99;27.71;97445.31;4914232;29;1024;-74
2023/04/03 10:26:04;;;;;;;;;;;;;;;22.01;27.38;97442.81;4916637;29;1661;-74
2023/04/03 10:28:45;;;;;;;;;;;;;;;21.79;27.64;97446.44;4938491;29;1022;-74
2023/04/03 10:31:16;;;;;;;;;;;;;;;21.77;27.64;97440.44;4938330;29;975;-73
2023/04/03 10:33:51;;;;;;;;;;;;;;;21.85;27.54;97435.28;4922369;29;1960;-74
2023/04/03 10:36:26;;;;;;;;;;;;;;;21.70;28.12;97435.03;4938593;29;915;-74
2023/04/03 10:39:01;;;;;;;;;;;;;;;22.24;27.09;97433.09;4938132;29;1017;-74
2023/04/03 10:41:36;;;;;;;;;;;;;;;22.12;27.31;97425.44;4922011;29;1969;-74
2023/04/03 10:44:05;;;;;;;;;;;;;;;22.24;27.06;97428.22;4922267;29;951;-74
2023/04/03 10:46:57;;;;;;;;;;;;;;;21.83;27.81;97432.94;4922691;29;903;-74
2023/04/03 10:49:42;;;;;;;;;;;;;;;21.88;27.63;97425.88;4920328;29;990;-73
2023/04/03 10:52:14;;;;;;;;;;;;;;;21.79;27.82;97420.16;4935297;28;1040;-74
2023/04/03 10:54:40;;;;;;;;;;;;;;;22.07;27.27;97426.78;4963083;28;1894;-74
2023/04/03 10:57:07;;;;;;;;;;;;;;;22.14;27.43;97429.41;4997264;28;952;-74
2023/04/03 10:59:36;;;;;;;;;;;;;;;22.27;27.02;97418.75;4960424;28;1145;-74
2023/04/03 11:02:22;;;;;;;;;;;;;;;22.23;26.88;97420.97;4960100;28;962;-73
2023/04/03 11:04:48;;;;;;;;;;;;;;;21.95;27.53;97410.66;4959863;28;1264;-74
2023/04/03 11:07:14;;;;;;;;;;;;;;;21.87;27.46;97404.50;4960478;28;1062;-74
2023/04/03 11:09:43;;;;;;;;;;;;;;;21.90;27.49;97414.88;4975405;28;1945;-74
2023/04/03 11:12:21;;;;;;;;;;;;;;;22.17;27.16;97410.66;4941188;29;1800;-74
2023/04/03 11:14:47;;;;;;;;;;;;;;;22.01;27.61;97408.81;4956591;29;1915;-74
2023/04/03 11:17:13;;;;;;;;;;;;;;;22.04;27.21;97413.56;4956809;29;1177;-74
2023/04/03 11:19:47;;;;;;;;;;;;;;;22.30;26.87;97408.56;4957004;29;1033;-73
2023/04/03 11:22:13;;;;;;;;;;;;;;;22.16;26.98;97407.06;4956575;29;956;-74
2023/04/03 11:24:39;;;;;;;;;;;;;;;21.91;27.32;97415.66;4956757;29;1027;-73
2023/04/03 11:27:05;;;;;;;;;;;;;;;22.20;27.24;97406.91;4943132;29;1850;-74
2023/04/03 11:29:37;;;;;;;;;;;;;;;22.35;27.06;97411.56;4956719;28;1035;-73
2023/04/03 11:32:22;;;;;;;;;;;;;;;22.10;27.25;97404.03;4956734;28;1016;-74
2023/04/03 11:34:49;;;;;;;;;;;;;;;22.18;27.25;97406.59;4955673;29;1982;-74
2023/04/03 11:37:24;;;;;;;;;;;;;;;22.00;27.19;97412.91;4961580;28;958;-73
2023/04/03 11:39:52;;;;;;;;;;;;;;;21.95;27.32;97416.34;4977112;28;1791;-74
2023/04/03 11:42:24;;;;;;;;;;;;;;;22.00;27.30;97401.56;4996433;28;974;-74
2023/04/03 11:44:49;;;;;;;;;;;;;;;21.75;27.41;97406.13;4980120;28;1109;-74
2023/04/03 11:47:47;;;;;;;;;;;;;;;22.19;27.21;97403.31;4980026;28;1269;-74
2023/04/03 11:50:32;;;;;;;;;;;;;;;22.02;27.28;97407.56;4937092;29;1062;-74
2023/04/03 11:52:58;;;;;;;;;;;;;;;21.91;27.45;97404.34;4887515;29;1341;-74
2023/04/03 11:55:30;;;;;;;;;;;;;;;22.20;26.83;97416.22;4902388;29;1982;-74
2023/04/03 11:57:58;;;;;;;;;;;;;;;21.56;27.95;97410.06;4918051;29;1043;-74
2023/04/03 12:00:43;;;;;;;;;;;;;;;22.02;27.40;97416.06;4917706;29;951;-73
2023/04/03 12:03:24;;;;;;;;;;;;;;;21.57;27.85;97403.16;4902087;29;1202;-74
2023/04/03 12:06:10;;;;;;;;;;;;;;;22.14;27.39;97418.06;4917585;29;1779;-74
2023/04/03 12:08:41;;;;;;;;;;;;;;;22.18;27.26;97417.94;4873006;29;1684;-74
2023/04/03 12:11:10;;;;;;;;;;;;;;;22.20;27.50;97416.22;4879892;29;1040;-74
2023/04/03 12:13:36;;;;;;;;;;;;;;;21.90;27.75;97414.88;4864467;29;1025;-74
2023/04/03 12:16:03;;;;;;;;;;;;;;;21.72;28.22;97404.22;4864455;29;1915;-73
2023/04/03 12:18:40;;;;;;;;;;;;;;;21.82;28.01;97407.91;4842861;29;1095;-74
2023/04/03 12:21:06;;;;;;;;;;;;;;;21.69;28.30;97407.97;4842964;29;1143;-73
2023/04/03 12:23:32;;;;;;;;;;;;;;;22.43;27.53;97400.72;4838987;29;1902;-74
2023/04/03 12:26:16;;;;;;;;;;;;;;;22.29;27.76;97390.75;4845455;29;1101;-74
2023/04/03 12:28:42;;;;;;;;;;;;;;;22.07;27.88;97401.28;4861288;29;884;-74
2023/04/03 12:31:08;;;;;;;;;;;;;;;21.95;28.08;97388.78;4876763;29;1286;-74
2023/04/03 12:33:57;;;;;;;;;;;;;;;21.74;28.38;97390.38;4861124;29;1154;-74
2023/04/03 12:36:26;;;;;;;;;;;;;;;21.85;28.50;97385.09;4860995;29;1204;-74
2023/04/03 12:39:01;;;;;;;;;;;;;;;22.25;28.03;97378.78;4863607;29;1997;-73
2023/04/03 12:41:45;;;;;;;;;;;;;;;22.12;28.25;97374.44;4879841;29;1004;-74
2023/04/03 12:44:29;;;;;;;;;;;;;;;22.37;28.08;97374.25;4879248;29;990;-74
2023/04/03 12:46:55;;;;;;;;;;;;;;;22.12;28.31;97363.09;4955796;29;947;-74
2023/04/03 12:49:20;;;;;;;;;;;;;;;21.73;28.89;97366.16;4962128;28;996;-74
2023/04/03 12:51:46;;;;;;;;;;;;;;;21.79;28.46;97364.31;4975599;28;1657;-73
2023/04/03 12:54:16;;;;;;;;;;;;;;;21.89;28.46;97362.31;4976593;28;1906;-74
2023/04/03 12:56:41;;;;;;;;;;;;;;;22.05;28.85;97361.31;4975569;28;1525;-73
2023/04/03 12:59:18;;;;;;;;;;;;;;;22.41;28.45;97362.78;4977006;28;954;-74
2023/04/03 13:01:44;;;;;;;;;;;;;;;22.22;28.62;97368.34;4991853;28;1658;-74
2023/04/03 13:04:11;;;;;;;;;;;;;;;22.33;28.29;97385.75;4995040;28;1019;-74
2023/04/03 13:06:40;;;;;;;;;;;;;;;21.97;28.61;97369.31;4978854;28;1052;-74